Time;durP1;ratioP1;P1;durP2;ratioP2;P2;SDS_P1;SDS_P2;PMS_P1;PMS_P2;Temp;Humidity;BMP_temperature;BMP_pressure;BME280_temperature;BME280_humidity;BME280_pressure;Samples;Min_cycle;Max_cycle;Signal;HPM_P1;HPM_P2
2023/05/07 00:01:44;;;;;;;9.10;4.55;;;20.90;55.30;;;;;;4961928;28;20218;-80
2023/05/07 00:04:13;;;;;;;8.27;4.70;;;20.90;55.30;;;;;;4961777;28;20206;-80
2023/05/07 00:06:40;;;;;;;9.98;4.80;;;20.90;55.30;;;;;;4961582;28;20210;-80
2023/05/07 00:09:07;;;;;;;7.05;4.70;;;20.90;55.50;;;;;;4961808;28;20289;-80
2023/05/07 00:11:35;;;;;;;8.18;4.72;;;20.90;55.30;;;;;;4961370;28;20272;-80
2023/05/07 00:14:02;;;;;;;7.70;4.68;;;20.90;55.40;;;;;;4961430;28;20208;-80
2023/05/07 00:16:29;;;;;;;8.15;4.68;;;20.90;55.30;;;;;;4961426;28;20198;-80
2023/05/07 00:18:56;;;;;;;7.20;4.40;;;20.90;55.60;;;;;;4961352;28;20206;-80
2023/05/07 00:21:26;;;;;;;8.90;4.70;;;20.90;55.60;;;;;;4961469;28;20221;-80
2023/05/07 00:23:53;;;;;;;8.60;5.03;;;20.90;55.60;;;;;;4963820;28;20675;-80
2023/05/07 00:26:20;;;;;;;7.30;5.03;;;20.90;55.30;;;;;;4963640;28;20213;-80
2023/05/07 00:28:50;;;;;;;6.57;4.15;;;20.80;55.20;;;;;;4964025;28;20197;-80
2023/05/07 00:31:17;;;;;;;7.88;4.18;;;20.80;55.60;;;;;;4962004;28;20230;-80
2023/05/07 00:33:44;;;;;;;7.32;4.95;;;20.80;55.20;;;;;;4961241;28;20308;-80
2023/05/07 00:36:11;;;;;;;5.28;4.05;;;20.80;55.50;;;;;;4961998;28;20657;-80
2023/05/07 00:38:39;;;;;;;7.13;4.53;;;20.80;55.40;;;;;;4962161;28;20213;-80
2023/05/07 00:41:07;;;;;;;5.40;4.13;;;20.80;55.30;;;;;;4962907;28;20225;-80
2023/05/07 00:43:33;;;;;;;5.22;4.03;;;20.80;55.50;;;;;;4962741;28;20198;-80
2023/05/07 00:46:02;;;;;;;5.45;4.25;;;20.70;55.90;;;;;;4963213;28;20692;-80
2023/05/07 00:48:29;;;;;;;6.35;4.05;;;20.80;55.20;;;;;;4962377;28;20657;-80
2023/05/07 00:50:57;;;;;;;5.75;4.03;;;20.70;55.10;;;;;;4962720;28;20213;-80
2023/05/07 00:53:24;;;;;;;6.47;4.15;;;20.70;55.10;;;;;;4962449;28;20218;-80
2023/05/07 00:55:51;;;;;;;6.22;4.30;;;20.70;55.20;;;;;;4980185;28;20225;-80
2023/05/07 00:58:18;;;;;;;5.95;4.28;;;20.70;55.10;;;;;;4962781;28;20226;-80
2023/05/07 01:00:46;;;;;;;6.97;4.22;;;20.70;55.20;;;;;;4947056;28;20202;-80
2023/05/07 01:03:14;;;;;;;5.55;4.15;;;20.70;55.10;;;;;;4963809;28;20194;-80
2023/05/07 01:05:41;;;;;;;6.85;4.07;;;20.70;55.10;;;;;;4946844;28;20265;-80
2023/05/07 01:08:09;;;;;;;5.68;4.05;;;20.70;55.10;;;;;;4964013;28;20218;-80
2023/05/07 01:10:36;;;;;;;6.22;3.95;;;20.70;55.10;;;;;;4962745;28;20226;-80
2023/05/07 01:13:03;;;;;;;5.05;4.25;;;20.60;55.10;;;;;;4962692;28;20225;-80
2023/05/07 01:15:30;;;;;;;5.15;4.05;;;20.70;55.10;;;;;;4962902;28;20213;-80
2023/05/07 01:17:57;;;;;;;5.97;3.78;;;20.70;55.10;;;;;;4963342;28;20206;-80
2023/05/07 01:20:34;;;;;;;6.20;4.15;;;20.60;55.00;;;;;;4964213;28;20209;-80
2023/05/07 01:23:03;;;;;;;5.38;3.97;;;20.60;54.90;;;;;;4970359;28;20224;-80
2023/05/07 01:25:30;;;;;;;5.53;4.20;;;20.60;54.70;;;;;;4964421;28;20331;-80
2023/05/07 01:28:01;;;;;;;5.57;3.78;;;20.60;54.90;;;;;;4961351;28;20226;-80
2023/05/07 01:30:30;;;;;;;6.38;3.63;;;20.60;54.90;;;;;;4960306;28;20197;-80
2023/05/07 01:33:00;;;;;;;5.93;3.97;;;20.60;55.00;;;;;;4959767;28;20313;-80
2023/05/07 01:35:28;;;;;;;5.20;3.70;;;20.60;54.90;;;;;;4960176;28;20198;-80
2023/05/07 01:37:56;;;;;;;4.70;3.50;;;20.60;55.00;;;;;;4960464;28;20637;-78
2023/05/07 01:40:24;;;;;;;6.25;3.72;;;20.60;54.80;;;;;;4960460;28;20198;-78
2023/05/07 01:42:51;;;;;;;5.38;3.63;;;20.50;54.70;;;;;;4959968;28;20312;-78
2023/05/07 01:45:18;;;;;;;5.03;3.67;;;20.60;54.90;;;;;;4960874;28;20571;-78
2023/05/07 01:47:46;;;;;;;4.95;3.78;;;20.50;54.70;;;;;;4960127;28;20687;-78
2023/05/07 01:50:12;;;;;;;5.40;3.72;;;20.60;55.00;;;;;;4960837;28;20616;-78
2023/05/07 01:52:40;;;;;;;6.05;3.88;;;20.50;54.70;;;;;;4959909;28;20280;-78
2023/05/07 01:55:08;;;;;;;4.30;3.55;;;20.50;54.90;;;;;;4944499;28;20230;-79
2023/05/07 01:57:36;;;;;;;4.75;3.60;;;20.50;54.70;;;;;;4961395;28;20208;-79
2023/05/07 02:00:06;;;;;;;6.63;3.92;;;20.60;55.00;;;;;;4960815;28;20204;-79
2023/05/07 02:02:42;;;;;;;4.45;3.30;;;20.50;55.40;;;;;;4978495;28;20273;-80
2023/05/07 02:05:18;;;;;;;5.60;3.80;;;20.50;54.80;;;;;;4961404;28;20204;-80
2023/05/07 02:07:50;;;;;;;5.55;3.53;;;20.50;54.80;;;;;;4961550;28;20198;-80
2023/05/07 02:10:18;;;;;;;4.30;3.53;;;20.50;54.70;;;;;;4960054;28;20229;-80
2023/05/07 02:12:47;;;;;;;4.93;3.83;;;20.50;54.70;;;;;;4960469;28;20226;-80
2023/05/07 02:15:14;;;;;;;4.32;3.17;;;20.50;54.90;;;;;;4960465;28;20201;-80
2023/05/07 02:17:56;;;;;;;4.78;3.33;;;20.50;54.80;;;;;;4960339;28;20691;-80
2023/05/07 02:20:23;;;;;;;4.40;3.60;;;20.40;54.70;;;;;;4960742;28;20198;-80
2023/05/07 02:22:51;;;;;;;4.82;3.47;;;20.40;54.70;;;;;;4958799;28;20221;-80
2023/05/07 02:25:18;;;;;;;4.35;3.20;;;20.40;54.80;;;;;;4960750;28;20205;-80
2023/05/07 02:27:46;;;;;;;4.10;3.40;;;20.40;54.90;;;;;;4959663;28;20281;-80
2023/05/07 02:30:15;;;;;;;4.60;3.50;;;20.40;54.90;;;;;;4959588;28;20198;-80
2023/05/07 02:32:43;;;;;;;4.07;3.50;;;20.40;54.80;;;;;;4959315;28;20241;-80
2023/05/07 02:35:10;;;;;;;5.20;3.60;;;20.40;54.80;;;;;;4959449;28;20222;-80
2023/05/07 02:37:37;;;;;;;4.80;3.55;;;20.40;54.90;;;;;;4960028;28;20204;-80
2023/05/07 02:40:05;;;;;;;5.65;3.53;;;20.40;54.90;;;;;;4960090;28;20202;-80
2023/05/07 02:42:32;;;;;;;4.60;3.35;;;20.30;54.70;;;;;;4959024;28;20269;-80
2023/05/07 02:45:01;;;;;;;3.78;3.00;;;20.40;54.90;;;;;;4959217;28;20197;-80
2023/05/07 02:47:28;;;;;;;5.70;3.63;;;20.40;54.80;;;;;;4982374;23;20240;-81
2023/05/07 02:49:55;;;;;;;4.45;3.33;;;20.30;54.80;;;;;;4979783;28;20205;-81
2023/05/07 02:52:22;;;;;;;3.10;2.80;;;20.30;54.80;;;;;;4980018;28;20300;-81
2023/05/07 02:54:50;;;;;;;4.63;3.25;;;20.30;54.80;;;;;;4979067;28;20228;-81
2023/05/07 02:57:17;;;;;;;4.32;3.45;;;20.30;54.80;;;;;;4978560;28;20232;-81
2023/05/07 02:59:44;;;;;;;3.80;3.40;;;20.30;54.80;;;;;;4978397;28;20256;-81
2023/05/07 03:02:14;;;;;;;3.72;3.30;;;20.30;54.80;;;;;;4978245;28;20236;-81
2023/05/07 03:04:42;;;;;;;5.22;3.10;;;20.30;54.80;;;;;;4978672;28;20217;-81
2023/05/07 03:07:09;;;;;;;3.92;3.33;;;20.30;54.80;;;;;;4978973;28;20748;-81
2023/05/07 03:09:36;;;;;;;4.57;3.40;;;20.30;54.80;;;;;;4978689;28;20215;-81
2023/05/07 03:12:04;;;;;;;4.88;3.50;;;20.30;54.80;;;;;;4978220;28;20221;-81
2023/05/07 03:14:31;;;;;;;4.43;3.50;;;20.20;54.70;;;;;;4977750;28;20694;-81
2023/05/07 03:16:58;;;;;;;4.13;3.30;;;20.20;54.80;;;;;;4978386;28;20543;-81
2023/05/07 03:19:27;;;;;;;4.38;3.33;;;20.30;55.10;;;;;;4977967;28;20205;-81
2023/05/07 03:21:55;;;;;;;3.63;3.10;;;20.30;54.90;;;;;;4977937;28;20213;-81
2023/05/07 03:24:22;;;;;;;4.03;3.40;;;20.30;55.20;;;;;;4977935;28;20205;-81
2023/05/07 03:26:50;;;;;;;4.20;3.38;;;20.30;55.10;;;;;;4977942;28;20198;-81
2023/05/07 03:29:17;;;;;;;4.85;3.38;;;20.30;55.00;;;;;;4978382;28;20204;-81
2023/05/07 03:31:44;;;;;;;3.58;3.10;;;20.40;55.00;;;;;;4979468;28;20228;-81
2023/05/07 03:34:11;;;;;;;3.72;3.17;;;20.40;54.90;;;;;;4979256;28;20699;-81
2023/05/07 03:36:40;;;;;;;4.00;3.60;;;20.40;54.60;;;;;;4981904;28;20678;-81
2023/05/07 03:39:10;;;;;;;4.00;3.50;;;20.50;54.60;;;;;;4981926;28;20190;-80
2023/05/07 03:41:40;;;;;;;3.88;3.15;;;20.50;54.40;;;;;;4981568;28;20251;-81
2023/05/07 03:44:08;;;;;;;4.25;3.40;;;20.60;54.30;;;;;;4981556;28;20216;-81
2023/05/07 03:46:35;;;;;;;4.32;3.22;;;20.50;54.10;;;;;;4998875;28;20216;-81
2023/05/07 03:49:03;;;;;;;4.18;3.20;;;20.60;54.20;;;;;;4965857;28;20588;-81
2023/05/07 03:51:31;;;;;;;4.60;3.40;;;20.60;54.00;;;;;;4982304;28;20292;-81
2023/05/07 03:54:00;;;;;;;4.00;3.50;;;20.60;54.10;;;;;;4982631;28;20237;-81
2023/05/07 03:56:30;;;;;;;4.07;3.30;;;20.60;54.10;;;;;;4981772;28;20201;-81
2023/05/07 03:58:59;;;;;;;3.88;2.97;;;20.60;54.00;;;;;;4966216;28;20214;-81
2023/05/07 04:01:27;;;;;;;3.35;2.72;;;20.60;53.90;;;;;;4982157;28;20220;-81
2023/05/07 04:03:54;;;;;;;3.40;3.10;;;20.60;54.00;;;;;;4981208;28;20246;-81
2023/05/07 04:06:22;;;;;;;4.00;3.30;;;20.60;54.00;;;;;;4965940;28;20197;-81
2023/05/07 04:08:50;;;;;;;3.67;2.97;;;20.70;53.90;;;;;;4981440;28;20197;-81
2023/05/07 04:11:18;;;;;;;4.30;3.35;;;20.60;53.90;;;;;;4981585;28;20221;-81
2023/05/07 04:13:46;;;;;;;3.70;3.20;;;20.60;53.90;;;;;;4981970;28;20279;-81
2023/05/07 04:16:13;;;;;;;3.90;3.10;;;20.60;53.90;;;;;;4998818;28;20185;-81
2023/05/07 04:18:40;;;;;;;3.20;2.90;;;20.60;53.90;;;;;;4982034;28;20280;-81
2023/05/07 04:21:07;;;;;;;3.63;3.03;;;20.60;53.90;;;;;;4982447;28;20217;-81
2023/05/07 04:23:37;;;;;;;3.35;2.70;;;20.60;54.00;;;;;;4981799;28;20217;-80
2023/05/07 04:26:08;;;;;;;4.00;3.33;;;20.60;53.90;;;;;;4981739;28;20190;-81
2023/05/07 04:28:41;;;;;;;3.35;2.67;;;20.60;53.90;;;;;;4981756;28;20562;-81
2023/05/07 04:31:08;;;;;;;5.00;3.00;;;20.70;53.90;;;;;;4980932;28;20222;-81
2023/05/07 04:33:37;;;;;;;4.55;2.75;;;20.60;53.90;;;;;;4980895;28;20213;-81
2023/05/07 04:36:07;;;;;;;3.67;3.03;;;20.70;53.90;;;;;;4982469;28;20193;-79
2023/05/07 04:38:40;;;;;;;3.10;2.67;;;20.60;53.70;;;;;;4981603;28;20197;-79
2023/05/07 04:41:09;;;;;;;3.78;2.70;;;20.70;53.70;;;;;;4981528;28;20217;-79
2023/05/07 04:43:41;;;;;;;3.38;3.08;;;20.60;53.70;;;;;;4981097;28;20193;-79
2023/05/07 04:46:10;;;;;;;5.22;2.85;;;20.70;53.70;;;;;;4980409;28;20201;-79
2023/05/07 04:48:37;;;;;;;3.30;2.72;;;20.70;53.70;;;;;;4965054;28;20208;-79
2023/05/07 04:51:06;;;;;;;3.40;2.83;;;20.60;53.70;;;;;;4980971;28;20217;-79
2023/05/07 04:53:34;;;;;;;4.20;2.78;;;20.60;53.60;;;;;;4981625;28;20224;-79
2023/05/07 04:56:02;;;;;;;3.10;2.80;;;20.60;53.70;;;;;;4981529;28;20201;-79
2023/05/07 04:58:38;;;;;;;3.50;2.75;;;20.70;53.70;;;;;;4981998;28;20656;-79
2023/05/07 05:01:07;;;;;;;4.30;2.50;;;20.60;53.70;;;;;;4980986;28;20217;-79
2023/05/07 05:03:34;;;;;;;3.17;2.75;;;20.60;53.80;;;;;;4980774;28;20790;-79
2023/05/07 05:06:02;;;;;;;2.95;2.70;;;20.60;53.80;;;;;;4965108;28;20289;-79
2023/05/07 05:08:33;;;;;;;3.17;2.85;;;20.60;53.70;;;;;;4981761;28;20583;-79
2023/05/07 05:11:02;;;;;;;2.80;2.60;;;20.60;53.70;;;;;;4980896;28;20213;-79
2023/05/07 05:13:30;;;;;;;2.88;2.58;;;20.60;53.70;;;;;;4980644;28;20209;-80
2023/05/07 05:15:58;;;;;;;2.92;2.65;;;20.70;53.70;;;;;;4980996;28;20675;-80
2023/05/07 05:18:28;;;;;;;4.25;2.88;;;20.70;53.70;;;;;;4966387;28;20221;-80
2023/05/07 05:20:56;;;;;;;3.22;2.60;;;20.70;53.70;;;;;;4981630;28;20552;-80
2023/05/07 05:23:24;;;;;;;2.70;2.50;;;20.70;53.50;;;;;;4981523;28;20204;-80
2023/05/07 05:25:51;;;;;;;3.40;2.80;;;20.70;53.60;;;;;;4980566;28;20668;-80
2023/05/07 05:28:17;;;;;;;2.83;2.60;;;20.70;53.50;;;;;;4980902;28;20193;-82
2023/05/07 05:30:45;;;;;;;3.05;2.75;;;20.90;53.30;;;;;;4980053;28;20205;-82
2023/05/07 05:33:12;;;;;;;3.10;2.80;;;21.10;53.20;;;;;;4979703;28;20372;-82
2023/05/07 05:35:41;;;;;;;2.92;2.63;;;21.30;52.90;;;;;;4964691;28;20205;-80
2023/05/07 05:38:11;;;;;;;2.83;2.63;;;21.50;52.50;;;;;;4980006;28;20190;-80
2023/05/07 05:40:41;;;;;;;3.15;2.67;;;21.60;52.10;;;;;;4980694;28;20197;-80
2023/05/07 05:43:08;;;;;;;3.00;2.70;;;21.80;51.60;;;;;;4980330;28;20213;-79
2023/05/07 05:45:35;;;;;;;2.72;2.42;;;22.00;51.40;;;;;;4963737;28;20210;-80
2023/05/07 05:48:04;;;;;;;3.95;2.80;;;22.20;51.00;;;;;;4963916;28;20602;-80
2023/05/07 05:50:31;;;;;;;3.20;2.67;;;22.40;50.70;;;;;;4964378;28;20279;-81
2023/05/07 05:53:00;;;;;;;2.92;2.38;;;22.50;50.40;;;;;;4982059;28;20217;-80
2023/05/07 05:55:29;;;;;;;2.83;2.55;;;22.50;50.10;;;;;;4982688;28;20221;-80
2023/05/07 05:57:56;;;;;;;3.08;2.47;;;22.50;50.10;;;;;;4982632;28;20288;-80
2023/05/07 06:00:25;;;;;;;3.70;2.53;;;22.50;50.20;;;;;;4981494;28;20202;-80
2023/05/07 06:03:00;;;;;;;3.55;2.47;;;22.60;50.80;;;;;;4981461;28;20691;-80
2023/05/07 06:05:27;;;;;;;4.00;2.97;;;22.70;50.10;;;;;;4981613;28;20190;-80
2023/05/07 06:07:56;;;;;;;4.00;2.75;;;22.90;49.80;;;;;;4981448;28;20197;-80
2023/05/07 06:10:26;;;;;;;3.00;2.70;;;23.10;49.70;;;;;;4980973;28;20201;-80
2023/05/07 06:12:54;;;;;;;4.07;2.90;;;23.10;49.30;;;;;;4980658;28;20252;-80
2023/05/07 06:15:21;;;;;;;3.33;2.67;;;23.20;49.20;;;;;;4981110;28;20700;-80
2023/05/07 06:17:49;;;;;;;3.13;2.83;;;23.30;49.00;;;;;;4980528;28;20204;-80
2023/05/07 06:20:16;;;;;;;3.80;3.22;;;23.40;48.80;;;;;;4979248;28;20198;-79
2023/05/07 06:22:44;;;;;;;3.42;2.70;;;23.50;48.60;;;;;;4979482;28;20307;-79
2023/05/07 06:25:13;;;;;;;3.60;3.08;;;23.60;48.60;;;;;;4979468;28;20541;-79
2023/05/07 06:27:42;;;;;;;3.15;2.85;;;23.60;48.50;;;;;;4978865;28;20206;-79
2023/05/07 06:30:10;;;;;;;3.15;2.85;;;23.70;48.50;;;;;;4979064;28;20722;-80
2023/05/07 06:32:37;;;;;;;3.45;3.08;;;23.70;48.20;;;;;;4963486;28;20225;-80
2023/05/07 06:35:05;;;;;;;4.32;3.08;;;23.80;48.10;;;;;;4979104;28;20228;-79
2023/05/07 06:37:38;;;;;;;3.60;2.72;;;23.80;48.10;;;;;;4979099;28;20182;-79
2023/05/07 06:40:08;;;;;;;3.53;2.83;;;23.70;48.10;;;;;;4979958;28;20194;-79
2023/05/07 06:42:37;;;;;;;2.80;2.60;;;23.70;48.20;;;;;;4979266;28;20221;-79
2023/05/07 06:45:36;;;;;;;3.97;2.65;;;23.60;48.40;;;;;;4991621;28;20197;-79
2023/05/07 06:48:05;;;;;;;2.78;2.58;;;23.50;48.50;;;;;;4979213;28;20209;-79
2023/05/07 06:50:41;;;;;;;4.15;2.95;;;23.50;48.50;;;;;;4978560;28;20197;-79
2023/05/07 06:53:08;;;;;;;2.95;2.58;;;23.60;48.50;;;;;;4978251;28;20225;-79
2023/05/07 06:55:39;;;;;;;2.60;2.40;;;23.60;48.30;;;;;;4978966;28;20239;-79
2023/05/07 06:58:07;;;;;;;3.20;2.55;;;23.50;48.30;;;;;;4978822;28;20198;-79
2023/05/07 07:00:36;;;;;;;2.97;2.67;;;23.60;48.30;;;;;;4978474;28;20208;-79
2023/05/07 07:03:03;;;;;;;2.90;2.70;;;23.70;47.90;;;;;;4978318;28;20213;-79
2023/05/07 07:05:31;;;;;;;3.55;2.85;;;23.90;47.80;;;;;;4978537;28;20200;-79
2023/05/07 07:08:00;;;;;;;3.03;2.72;;;24.00;47.40;;;;;;4978243;28;20197;-79
2023/05/07 07:10:27;;;;;;;2.80;2.40;;;24.20;47.30;;;;;;4978275;28;20205;-79
2023/05/07 07:12:56;;;;;;;2.67;2.47;;;24.30;46.90;;;;;;4964616;28;20275;-79
2023/05/07 07:15:24;;;;;;;2.80;2.60;;;24.50;46.50;;;;;;4979478;28;20232;-81
2023/05/07 07:17:53;;;;;;;2.63;2.42;;;24.60;46.10;;;;;;4979930;28;20680;-81
2023/05/07 07:20:21;;;;;;;2.63;2.42;;;24.70;46.10;;;;;;4978839;28;20288;-81
2023/05/07 07:22:48;;;;;;;2.75;2.55;;;24.80;45.90;;;;;;4978649;28;20625;-81
2023/05/07 07:25:17;;;;;;;2.90;2.63;;;24.90;45.70;;;;;;4978815;28;20672;-81
2023/05/07 07:27:44;;;;;;;2.72;2.42;;;24.90;45.60;;;;;;4978794;28;20204;-81
2023/05/07 07:30:14;;;;;;;2.70;2.50;;;24.90;45.30;;;;;;4962945;28;20675;-81
2023/05/07 07:32:43;;;;;;;2.95;2.67;;;25.00;45.30;;;;;;4979220;28;20221;-81
2023/05/07 07:35:12;;;;;;;2.47;2.28;;;25.00;45.30;;;;;;4978417;28;20225;-81
2023/05/07 07:37:40;;;;;;;2.80;2.38;;;25.10;45.40;;;;;;4978421;28;20197;-81
2023/05/07 07:40:09;;;;;;;3.45;2.90;;;25.10;45.50;;;;;;4978192;28;20821;-81
2023/05/07 07:42:38;;;;;;;2.67;2.38;;;25.20;45.40;;;;;;4977980;28;20217;-81
2023/05/07 07:45:06;;;;;;;2.70;2.50;;;25.30;45.40;;;;;;4962738;28;20700;-79
2023/05/07 07:47:36;;;;;;;2.70;2.50;;;25.30;45.40;;;;;;4977977;28;20213;-78
2023/05/07 07:50:04;;;;;;;3.08;2.40;;;25.30;45.20;;;;;;4978352;28;20258;-79
2023/05/07 07:52:32;;;;;;;2.65;2.45;;;25.40;45.10;;;;;;4977809;28;20584;-79
2023/05/07 07:54:59;;;;;;;2.50;2.30;;;25.40;45.10;;;;;;4977822;28;20700;-79
2023/05/07 07:57:27;;;;;;;2.70;2.50;;;25.40;45.00;;;;;;4963075;28;20263;-79
2023/05/07 07:59:54;;;;;;;2.60;2.40;;;25.50;44.80;;;;;;4978131;28;20197;-79
2023/05/07 08:02:21;;;;;;;2.55;2.30;;;25.40;44.80;;;;;;4977951;28;20245;-79
2023/05/07 08:04:50;;;;;;;2.53;2.33;;;25.40;44.90;;;;;;4977794;28;20239;-79
2023/05/07 08:07:20;;;;;;;2.50;2.30;;;25.40;44.80;;;;;;4977837;28;20263;-79
2023/05/07 08:09:49;;;;;;;2.40;2.20;;;25.50;44.70;;;;;;4978098;28;20610;-79
2023/05/07 08:12:21;;;;;;;2.60;2.40;;;25.60;44.60;;;;;;4962031;28;20773;-79
2023/05/07 08:14:49;;;;;;;3.00;2.33;;;25.60;44.50;;;;;;4977600;28;20583;-79
2023/05/07 08:17:16;;;;;;;2.80;2.33;;;25.60;44.40;;;;;;4977557;28;20264;-79
2023/05/07 08:19:44;;;;;;;2.70;2.50;;;25.60;44.40;;;;;;4977363;28;20604;-78
2023/05/07 08:22:14;;;;;;;2.30;2.10;;;25.60;44.40;;;;;;4979880;28;20304;-79
2023/05/07 08:24:41;;;;;;;2.67;2.47;;;25.60;44.40;;;;;;4981169;28;20193;-79
2023/05/07 08:27:10;;;;;;;2.63;2.42;;;25.60;44.40;;;;;;4981199;28;20316;-79
2023/05/07 08:29:37;;;;;;;2.70;2.50;;;25.60;44.40;;;;;;4982079;28;20197;-79
2023/05/07 08:32:05;;;;;;;2.70;2.50;;;25.60;44.40;;;;;;4981783;28;20703;-80
2023/05/07 08:34:32;;;;;;;2.40;2.20;;;25.60;44.40;;;;;;4982490;28;20308;-81
2023/05/07 08:37:03;;;;;;;2.97;2.30;;;25.70;44.20;;;;;;4980979;28;20193;-79
2023/05/07 08:39:30;;;;;;;2.55;2.35;;;25.80;44.20;;;;;;4981184;28;20197;-79
2023/05/07 08:41:58;;;;;;;2.45;2.25;;;25.90;44.00;;;;;;4981015;28;20248;-79
2023/05/07 08:44:28;;;;;;;2.60;2.40;;;26.00;43.90;;;;;;4980749;28;20208;-79
2023/05/07 08:49:27;;;;;;;2.50;2.30;;;26.00;43.60;;;;;;4998412;28;20221;-85
2023/05/07 08:51:55;;;;;;;3.05;2.75;;;26.00;43.70;;;;;;4974053;28;20228;-84
2023/05/07 08:54:23;;;;;;;3.00;2.70;;;26.00;43.50;;;;;;4960666;28;20193;-85
2023/05/07 08:56:50;;;;;;;3.10;2.50;;;26.00;43.50;;;;;;4961143;28;20206;-85
2023/05/07 08:59:18;;;;;;;2.35;2.15;;;25.90;43.20;;;;;;4961063;28;20198;-83
2023/05/07 09:01:47;;;;;;;2.75;2.17;;;25.90;43.50;;;;;;4961781;28;20579;-83
2023/05/07 09:04:15;;;;;;;3.08;2.83;;;25.90;43.60;;;;;;4963533;28;20198;-83
2023/05/07 09:06:44;;;;;;;3.00;2.30;;;26.00;43.50;;;;;;4961264;28;20281;-82
2023/05/07 09:09:15;;;;;;;2.38;2.17;;;26.00;43.90;;;;;;4961981;28;20289;-83
2023/05/07 09:11:42;;;;;;;2.53;2.20;;;26.00;43.60;;;;;;4977371;28;20225;-83
2023/05/07 09:14:11;;;;;;;2.40;2.20;;;26.00;43.70;;;;;;4962271;28;20637;-83
2023/05/07 09:16:41;;;;;;;2.38;2.17;;;26.10;43.70;;;;;;4962156;28;20713;-82
2023/05/07 09:19:11;;;;;;;2.85;2.20;;;26.20;43.70;;;;;;4978506;28;20206;-82
2023/05/07 09:21:44;;;;;;;3.15;2.22;;;26.10;43.60;;;;;;4961309;28;20300;-83
2023/05/07 09:24:12;;;;;;;3.65;2.20;;;26.10;43.50;;;;;;4945437;28;20256;-82
2023/05/07 09:26:41;;;;;;;3.05;2.40;;;26.10;43.80;;;;;;4961108;28;20213;-82
2023/05/07 09:29:10;;;;;;;2.83;2.00;;;26.00;44.20;;;;;;4960876;28;20602;-82
2023/05/07 09:31:38;;;;;;;2.45;2.17;;;26.10;44.40;;;;;;4961258;28;20225;-82
2023/05/07 09:34:06;;;;;;;3.80;2.50;;;26.10;44.80;;;;;;4962367;28;20198;-82
2023/05/07 09:36:37;;;;;;;4.00;2.25;;;26.10;45.20;;;;;;4962021;28;20217;-82
2023/05/07 09:39:04;;;;;;;2.78;2.30;;;26.10;44.80;;;;;;4961104;28;20442;-82
2023/05/07 09:41:32;;;;;;;15.52;10.10;;;26.10;44.80;;;;;;4961768;28;20209;-82
2023/05/07 09:44:07;;;;;;;54.75;37.22;;;26.00;45.10;;;;;;4978142;28;20193;-82
2023/05/07 09:46:39;;;;;;;52.10;34.40;;;26.00;45.00;;;;;;4978568;28;20185;-81
2023/05/07 09:49:21;;;;;;;66.68;43.30;;;26.00;44.70;;;;;;4978306;28;20209;-82
2023/05/07 09:51:52;;;;;;;50.58;36.50;;;26.00;45.10;;;;;;4978077;28;20229;-82
2023/05/07 09:54:23;;;;;;;40.50;28.30;;;26.10;45.20;;;;;;4981530;28;20204;-82
2023/05/07 09:56:53;;;;;;;28.25;20.75;;;26.10;44.80;;;;;;4963735;28;20196;-82
2023/05/07 09:59:24;;;;;;;26.23;15.57;;;26.10;44.30;;;;;;4980942;28;20189;-82
2023/05/07 10:01:52;;;;;;;23.17;17.38;;;26.10;44.40;;;;;;4975931;28;20309;-82
2023/05/07 10:04:20;;;;;;;14.07;10.27;;;26.10;44.40;;;;;;4994321;28;20214;-82
2023/05/07 10:06:47;;;;;;;8.52;5.78;;;26.00;44.40;;;;;;4978135;28;20190;-82
2023/05/07 10:09:16;;;;;;;14.63;10.63;;;26.10;44.00;;;;;;4969058;28;20264;-81
2023/05/07 10:11:43;;;;;;;16.00;10.50;;;26.00;44.80;;;;;;4965288;28;20692;-81
2023/05/07 10:14:10;;;;;;;12.30;7.50;;;26.00;44.90;;;;;;4980880;28;20627;-81
2023/05/07 10:16:37;;;;;;;11.90;7.65;;;26.00;45.00;;;;;;4964637;28;20218;-81
2023/05/07 10:19:10;;;;;;;5.72;4.50;;;26.00;45.30;;;;;;4965352;28;20212;-81
2023/05/07 10:21:40;;;;;;;9.40;6.15;;;25.90;44.30;;;;;;4964191;28;20220;-82
2023/05/07 10:24:13;;;;;;;7.35;5.60;;;25.90;45.00;;;;;;4964809;28;20194;-82
2023/05/07 10:26:44;;;;;;;6.53;4.28;;;25.90;45.10;;;;;;4965539;28;20609;-83
2023/05/07 10:29:13;;;;;;;6.00;3.92;;;25.90;44.90;;;;;;4980923;28;20194;-83
2023/05/07 10:31:50;;;;;;;6.40;4.25;;;25.90;44.90;;;;;;4965675;28;20221;-83
2023/05/07 10:34:21;;;;;;;4.90;3.70;;;25.80;45.00;;;;;;4965332;28;20190;-82
2023/05/07 10:36:48;;;;;;;3.70;3.25;;;25.80;45.40;;;;;;4964611;28;20274;-83
2023/05/07 10:39:16;;;;;;;3.92;2.92;;;25.80;45.60;;;;;;4980306;28;20227;-83
2023/05/07 10:41:45;;;;;;;2.60;2.40;;;25.80;45.10;;;;;;4961323;28;20218;-83
2023/05/07 10:44:12;;;;;;;2.40;2.20;;;25.80;45.10;;;;;;4959688;28;20554;-83
2023/05/07 10:46:39;;;;;;;3.72;2.35;;;25.70;45.10;;;;;;4974514;28;20441;-83
2023/05/07 10:49:12;;;;;;;3.28;2.20;;;25.60;45.50;;;;;;4959524;28;20276;-81
2023/05/07 10:52:15;;;;;;;3.13;2.00;;;25.60;45.10;;;;;;4976784;28;20340;-82
2023/05/07 10:55:24;;;;;;;3.63;2.20;;;25.70;45.00;;;;;;4960400;28;20237;-82
2023/05/07 10:58:27;;;;;;;2.10;2.00;;;25.80;45.30;;;;;;4960106;28;20197;-82
2023/05/07 11:01:01;;;;;;;3.72;2.15;;;25.80;44.30;;;;;;4959832;28;20269;-82
2023/05/07 11:03:37;;;;;;;2.35;2.00;;;25.90;44.70;;;;;;4959125;28;20540;-82
2023/05/07 11:06:23;;;;;;;2.60;2.03;;;25.90;44.00;;;;;;5111075;27;20565;-57
2023/05/07 11:09:02;;;;;;;3.47;1.85;;;25.80;43.90;;;;;;5109448;28;20738;-57
2023/05/07 11:11:46;;;;;;;2.15;2.03;;;25.80;44.50;;;;;;5109369;28;20246;-57
2023/05/07 11:14:51;;;;;;;2.33;1.88;;;25.70;43.90;;;;;;5109412;28;20189;-57
2023/05/07 11:17:31;;;;;;;2.05;1.85;;;25.70;43.80;;;;;;5103796;28;20201;-57
2023/05/07 11:20:05;;;;;;;2.22;2.03;;;25.60;44.00;;;;;;5109222;28;20181;-57
2023/05/07 11:22:57;;;;;;;2.65;2.10;;;25.60;45.10;;;;;;5109177;28;20274;-57
2023/05/07 11:25:35;;;;;;;2.45;1.90;;;25.50;44.00;;;;;;5108973;28;20229;-57
2023/05/07 11:28:22;;;;;;;2.33;2.00;;;25.60;44.30;;;;;;5110467;28;20206;-57
2023/05/07 11:31:00;;;;;;;2.33;2.13;;;25.60;44.10;;;;;;5109069;28;20182;-57
2023/05/07 11:33:27;;;;;;;3.45;2.10;;;25.50;43.90;;;;;;5110535;28;20184;-57
2023/05/07 11:35:56;;;;;;;2.67;2.20;;;25.50;44.40;;;;;;5108820;28;20258;-57
2023/05/07 11:38:28;;;;;;;2.38;2.00;;;25.40;44.60;;;;;;5109102;28;20198;-57
2023/05/07 11:40:56;;;;;;;2.55;1.95;;;25.40;44.40;;;;;;5108892;28;20675;-58
2023/05/07 11:43:23;;;;;;;2.30;2.10;;;25.40;44.80;;;;;;5110662;28;20280;-58
2023/05/07 11:45:51;;;;;;;2.38;2.17;;;25.40;44.20;;;;;;5109882;28;20291;-57
2023/05/07 11:48:18;;;;;;;2.10;1.92;;;25.40;44.90;;;;;;5110222;28;20200;-57
2023/05/07 11:50:52;;;;;;;2.40;1.95;;;25.30;44.10;;;;;;5109875;28;20211;-57
2023/05/07 11:53:19;;;;;;;2.50;1.92;;;25.40;44.80;;;;;;5109783;28;20191;-57
2023/05/07 11:55:48;;;;;;;2.35;2.15;;;25.30;44.10;;;;;;5109669;28;20686;-57
2023/05/07 11:58:21;;;;;;;1.90;1.67;;;25.30;43.90;;;;;;5108383;28;20292;-58
2023/05/07 12:00:51;;;;;;;1.80;1.70;;;25.30;43.90;;;;;;5109632;28;20234;-57
2023/05/07 12:03:18;;;;;;;2.30;1.90;;;25.20;43.80;;;;;;5109533;28;20189;-57
2023/05/07 12:05:45;;;;;;;2.55;1.60;;;25.10;43.40;;;;;;5108053;28;20221;-58
2023/05/07 12:08:15;;;;;;;2.17;1.90;;;25.10;43.70;;;;;;5108420;28;20567;-58
2023/05/07 12:10:42;;;;;;;1.95;1.75;;;25.10;43.90;;;;;;5109429;28;20197;-58
2023/05/07 12:13:16;;;;;;;2.47;2.03;;;25.10;43.70;;;;;;5109425;28;20191;-57
2023/05/07 12:15:44;;;;;;;2.55;1.70;;;25.10;43.90;;;;;;5107700;28;20291;-58
2023/05/07 12:18:11;;;;;;;3.60;1.90;;;25.10;43.70;;;;;;5095688;28;20201;-58
2023/05/07 12:20:38;;;;;;;2.03;1.83;;;25.00;43.50;;;;;;5096165;28;20205;-58
2023/05/07 12:23:05;;;;;;;2.45;1.80;;;25.00;43.70;;;;;;5095909;28;20660;-57
2023/05/07 12:25:32;;;;;;;2.90;2.10;;;24.90;43.60;;;;;;5094711;28;20218;-58
2023/05/07 12:28:01;;;;;;;2.00;1.90;;;24.90;43.80;;;;;;5099913;28;20183;-58
2023/05/07 12:30:29;;;;;;;2.25;1.90;;;24.90;44.20;;;;;;5096337;28;20214;-58
2023/05/07 12:32:56;;;;;;;1.80;1.70;;;24.90;44.50;;;;;;5094408;28;20204;-57
2023/05/07 12:35:30;;;;;;;3.10;1.75;;;24.90;44.70;;;;;;5094109;28;20313;-58
2023/05/07 12:37:58;;;;;;;2.17;1.98;;;24.80;44.90;;;;;;5095436;28;20217;-58
2023/05/07 12:40:26;;;;;;;2.03;1.83;;;24.90;45.10;;;;;;5095244;28;20667;-58
2023/05/07 12:42:54;;;;;;;1.98;1.75;;;24.80;45.10;;;;;;5095371;28;20192;-58
2023/05/07 12:45:22;;;;;;;2.95;1.83;;;24.80;45.30;;;;;;5095285;28;20218;-58
2023/05/07 12:47:50;;;;;;;2.10;1.90;;;24.80;45.50;;;;;;5093956;28;20202;-58
2023/05/07 12:50:17;;;;;;;2.70;1.83;;;24.80;45.70;;;;;;5093916;28;20201;-58
2023/05/07 12:52:44;;;;;;;4.03;2.00;;;24.70;45.70;;;;;;5093833;28;20208;-58
2023/05/07 12:55:13;;;;;;;1.90;1.80;;;24.70;45.90;;;;;;5095360;28;20206;-58
2023/05/07 12:57:40;;;;;;;2.20;1.80;;;24.70;46.10;;;;;;5093701;28;20190;-58
2023/05/07 13:00:09;;;;;;;2.47;2.00;;;24.70;46.20;;;;;;5095036;28;20651;-58